sensor_id;sensor_type;location;lat;lon;timestamp;P1;durP1;ratioP1;P2;durP2;ratioP2
16593;SDS011;8410;52.532;13.336;2023-01-08T00:00:16;36.77;;;32.87;;
16593;SDS011;8410;52.532;13.336;2023-01-08T00:02:44;18.33;;;15.00;;
16593;SDS011;8410;52.532;13.336;2023-01-08T00:05:11;19.20;;;17.27;;
16593;SDS011;8410;52.532;13.336;2023-01-08T00:07:39;12.53;;;11.23;;
16593;SDS011;8410;52.532;13.336;2023-01-08T00:10:08;22.80;;;20.50;;
16593;SDS011;8410;52.532;13.336;2023-01-08T00:12:36;14.13;;;12.63;;
16593;SDS011;8410;52.532;13.336;2023-01-08T00:15:04;19.10;;;17.10;;
16593;SDS011;8410;52.532;13.336;2023-01-08T00:17:33;30.73;;;26.87;;
16593;SDS011;8410;52.532;13.336;2023-01-08T00:20:01;24.17;;;20.73;;
16593;SDS011;8410;52.532;13.336;2023-01-08T00:22:28;14.77;;;13.37;;
16593;SDS011;8410;52.532;13.336;2023-01-08T00:24:56;19.83;;;17.83;;
16593;SDS011;8410;52.532;13.336;2023-01-08T00:27:23;16.10;;;14.40;;
16593;SDS011;8410;52.532;13.336;2023-01-08T00:29:51;29.23;;;25.93;;
16593;SDS011;8410;52.532;13.336;2023-01-08T00:32:18;22.53;;;20.13;;
16593;SDS011;8410;52.532;13.336;2023-01-08T00:34:47;34.33;;;30.50;;
16593;SDS011;8410;52.532;13.336;2023-01-08T00:37:14;19.50;;;17.50;;
16593;SDS011;8410;52.532;13.336;2023-01-08T00:39:44;10.37;;;9.37;;
16593;SDS011;8410;52.532;13.336;2023-01-08T00:42:11;12.33;;;11.13;;
16593;SDS011;8410;52.532;13.336;2023-01-08T00:44:39;47.37;;;41.63;;
16593;SDS011;8410;52.532;13.336;2023-01-08T00:47:06;28.03;;;25.10;;
16593;SDS011;8410;52.532;13.336;2023-01-08T00:49:34;14.53;;;13.00;;
16593;SDS011;8410;52.532;13.336;2023-01-08T00:52:03;14.70;;;13.30;;
16593;SDS011;8410;52.532;13.336;2023-01-08T00:54:32;17.40;;;15.57;;
16593;SDS011;8410;52.532;13.336;2023-01-08T00:57:00;20.70;;;18.13;;
16593;SDS011;8410;52.532;13.336;2023-01-08T00:59:27;10.00;;;9.00;;
16593;SDS011;8410;52.532;13.336;2023-01-08T01:01:55;31.67;;;27.97;;
16593;SDS011;8410;52.532;13.336;2023-01-08T01:04:23;21.83;;;19.27;;
16593;SDS011;8410;52.532;13.336;2023-01-08T01:06:51;34.93;;;30.10;;
16593;SDS011;8410;52.532;13.336;2023-01-08T01:09:20;37.87;;;28.73;;
16593;SDS011;8410;52.532;13.336;2023-01-08T01:11:48;24.63;;;19.57;;
16593;SDS011;8410;52.532;13.336;2023-01-08T01:14:15;26.77;;;21.83;;
16593;SDS011;8410;52.532;13.336;2023-01-08T01:16:43;32.33;;;25.50;;
16593;SDS011;8410;52.532;13.336;2023-01-08T01:19:12;14.13;;;11.27;;
16593;SDS011;8410;52.532;13.336;2023-01-08T01:21:40;36.53;;;25.97;;
16593;SDS011;8410;52.532;13.336;2023-01-08T01:24:09;23.60;;;17.87;;
16593;SDS011;8410;52.532;13.336;2023-01-08T01:26:40;31.57;;;23.97;;
16593;SDS011;8410;52.532;13.336;2023-01-08T01:29:07;35.70;;;26.40;;
16593;SDS011;8410;52.532;13.336;2023-01-08T01:31:35;47.60;;;33.27;;
16593;SDS011;8410;52.532;13.336;2023-01-08T01:34:02;35.53;;;25.67;;
16593;SDS011;8410;52.532;13.336;2023-01-08T01:36:30;32.53;;;23.13;;
16593;SDS011;8410;52.532;13.336;2023-01-08T01:38:57;48.30;;;34.07;;
16593;SDS011;8410;52.532;13.336;2023-01-08T01:41:26;48.73;;;33.63;;
16593;SDS011;8410;52.532;13.336;2023-01-08T01:43:57;43.20;;;32.03;;
16593;SDS011;8410;52.532;13.336;2023-01-08T01:46:27;43.97;;;30.70;;
16593;SDS011;8410;52.532;13.336;2023-01-08T01:49:04;37.90;;;26.97;;
16593;SDS011;8410;52.532;13.336;2023-01-08T01:51:34;17.40;;;14.20;;
16593;SDS011;8410;52.532;13.336;2023-01-08T01:54:04;34.50;;;25.93;;
16593;SDS011;8410;52.532;13.336;2023-01-08T01:56:35;44.77;;;33.03;;
16593;SDS011;8410;52.532;13.336;2023-01-08T01:59:04;35.90;;;26.47;;
16593;SDS011;8410;52.532;13.336;2023-01-08T02:01:32;56.03;;;38.00;;
16593;SDS011;8410;52.532;13.336;2023-01-08T02:04:00;30.87;;;22.87;;
16593;SDS011;8410;52.532;13.336;2023-01-08T02:06:32;17.87;;;15.57;;
16593;SDS011;8410;52.532;13.336;2023-01-08T02:09:04;19.93;;;15.73;;
16593;SDS011;8410;52.532;13.336;2023-01-08T02:11:42;28.67;;;19.27;;
16593;SDS011;8410;52.532;13.336;2023-01-08T02:14:16;26.43;;;20.80;;
16593;SDS011;8410;52.532;13.336;2023-01-08T02:16:52;12.00;;;10.50;;
16593;SDS011;8410;52.532;13.336;2023-01-08T02:19:28;23.17;;;20.47;;
16593;SDS011;8410;52.532;13.336;2023-01-08T02:22:09;9.03;;;8.13;;
16593;SDS011;8410;52.532;13.336;2023-01-08T02:24:50;12.70;;;10.27;;
16593;SDS011;8410;52.532;13.336;2023-01-08T02:27:23;14.97;;;11.83;;
16593;SDS011;8410;52.532;13.336;2023-01-08T02:29:54;19.70;;;15.13;;
16593;SDS011;8410;52.532;13.336;2023-01-08T02:32:24;24.67;;;18.73;;
16593;SDS011;8410;52.532;13.336;2023-01-08T02:34:53;21.33;;;17.37;;
16593;SDS011;8410;52.532;13.336;2023-01-08T02:37:21;16.13;;;13.97;;
16593;SDS011;8410;52.532;13.336;2023-01-08T02:39:51;19.57;;;16.23;;
16593;SDS011;8410;52.532;13.336;2023-01-08T02:42:33;9.20;;;8.20;;
16593;SDS011;8410;52.532;13.336;2023-01-08T02:45:09;11.13;;;9.73;;
16593;SDS011;8410;52.532;13.336;2023-01-08T02:47:48;13.63;;;10.80;;
16593;SDS011;8410;52.532;13.336;2023-01-08T02:50:20;10.07;;;7.93;;
16593;SDS011;8410;52.532;13.336;2023-01-08T02:52:53;10.20;;;9.13;;
16593;SDS011;8410;52.532;13.336;2023-01-08T02:55:24;16.53;;;14.60;;
16593;SDS011;8410;52.532;13.336;2023-01-08T02:57:56;82.60;;;57.73;;
16593;SDS011;8410;52.532;13.336;2023-01-08T03:00:24;43.73;;;32.20;;
16593;SDS011;8410;52.532;13.336;2023-01-08T03:02:56;44.77;;;34.57;;
16593;SDS011;8410;52.532;13.336;2023-01-08T03:05:29;12.10;;;10.60;;
16593;SDS011;8410;52.532;13.336;2023-01-08T03:07:57;9.07;;;8.27;;
16593;SDS011;8410;52.532;13.336;2023-01-08T03:10:25;9.00;;;8.10;;
16593;SDS011;8410;52.532;13.336;2023-01-08T03:12:58;9.23;;;8.23;;
16593;SDS011;8410;52.532;13.336;2023-01-08T03:15:30;9.53;;;8.53;;
16593;SDS011;8410;52.532;13.336;2023-01-08T03:18:03;10.53;;;9.03;;
16593;SDS011;8410;52.532;13.336;2023-01-08T03:20:36;9.47;;;8.57;;
16593;SDS011;8410;52.532;13.336;2023-01-08T03:23:05;9.80;;;8.80;;
16593;SDS011;8410;52.532;13.336;2023-01-08T03:25:36;11.43;;;9.13;;
16593;SDS011;8410;52.532;13.336;2023-01-08T03:28:09;12.70;;;11.23;;
16593;SDS011;8410;52.532;13.336;2023-01-08T03:30:39;9.20;;;8.30;;
16593;SDS011;8410;52.532;13.336;2023-01-08T03:33:08;9.20;;;8.07;;
16593;SDS011;8410;52.532;13.336;2023-01-08T03:35:38;8.83;;;7.40;;
16593;SDS011;8410;52.532;13.336;2023-01-08T03:38:10;9.17;;;8.23;;
16593;SDS011;8410;52.532;13.336;2023-01-08T03:40:42;8.10;;;7.30;;
16593;SDS011;8410;52.532;13.336;2023-01-08T03:43:13;8.30;;;7.50;;
16593;SDS011;8410;52.532;13.336;2023-01-08T03:45:41;7.67;;;6.97;;
16593;SDS011;8410;52.532;13.336;2023-01-08T03:48:18;7.97;;;7.27;;
16593;SDS011;8410;52.532;13.336;2023-01-08T03:50:47;9.33;;;8.40;;
16593;SDS011;8410;52.532;13.336;2023-01-08T03:53:14;8.40;;;7.70;;
16593;SDS011;8410;52.532;13.336;2023-01-08T03:55:42;9.50;;;8.60;;
16593;SDS011;8410;52.532;13.336;2023-01-08T03:58:10;8.77;;;7.97;;
16593;SDS011;8410;52.532;13.336;2023-01-08T04:00:39;9.80;;;8.80;;
16593;SDS011;8410;52.532;13.336;2023-01-08T04:03:06;9.80;;;8.90;;
16593;SDS011;8410;52.532;13.336;2023-01-08T04:05:34;9.50;;;8.63;;
16593;SDS011;8410;52.532;13.336;2023-01-08T04:08:02;8.50;;;7.70;;
16593;SDS011;8410;52.532;13.336;2023-01-08T04:10:30;8.70;;;7.90;;
16593;SDS011;8410;52.532;13.336;2023-01-08T04:12:57;11.57;;;8.77;;
16593;SDS011;8410;52.532;13.336;2023-01-08T04:15:24;9.70;;;8.77;;
16593;SDS011;8410;52.532;13.336;2023-01-08T04:17:53;8.97;;;7.70;;
16593;SDS011;8410;52.532;13.336;2023-01-08T04:20:21;9.13;;;8.23;;
16593;SDS011;8410;52.532;13.336;2023-01-08T04:22:48;8.83;;;7.93;;
16593;SDS011;8410;52.532;13.336;2023-01-08T04:25:16;9.90;;;9.03;;
16593;SDS011;8410;52.532;13.336;2023-01-08T04:27:44;10.07;;;9.17;;
16593;SDS011;8410;52.532;13.336;2023-01-08T04:30:12;10.17;;;9.27;;
16593;SDS011;8410;52.532;13.336;2023-01-08T04:32:39;8.70;;;7.90;;
16593;SDS011;8410;52.532;13.336;2023-01-08T04:35:08;8.73;;;7.93;;
16593;SDS011;8410;52.532;13.336;2023-01-08T04:37:36;9.03;;;8.13;;
16593;SDS011;8410;52.532;13.336;2023-01-08T04:40:04;8.90;;;8.10;;
16593;SDS011;8410;52.532;13.336;2023-01-08T04:42:32;9.57;;;8.67;;
16593;SDS011;8410;52.532;13.336;2023-01-08T04:45:00;8.67;;;7.87;;
16593;SDS011;8410;52.532;13.336;2023-01-08T04:47:27;10.20;;;7.70;;
16593;SDS011;8410;52.532;13.336;2023-01-08T04:49:55;9.23;;;8.33;;
16593;SDS011;8410;52.532;13.336;2023-01-08T04:52:23;10.07;;;9.13;;
16593;SDS011;8410;52.532;13.336;2023-01-08T04:54:51;9.83;;;8.83;;
16593;SDS011;8410;52.532;13.336;2023-01-08T04:57:19;9.77;;;8.87;;
16593;SDS011;8410;52.532;13.336;2023-01-08T04:59:46;10.13;;;9.17;;
16593;SDS011;8410;52.532;13.336;2023-01-08T05:02:14;9.97;;;9.03;;
16593;SDS011;8410;52.532;13.336;2023-01-08T05:04:41;8.30;;;7.40;;
16593;SDS011;8410;52.532;13.336;2023-01-08T05:07:09;9.87;;;8.97;;
16593;SDS011;8410;52.532;13.336;2023-01-08T05:09:38;9.07;;;8.27;;
16593;SDS011;8410;52.532;13.336;2023-01-08T05:12:05;9.73;;;8.30;;
16593;SDS011;8410;52.532;13.336;2023-01-08T05:14:33;19.10;;;17.13;;
16593;SDS011;8410;52.532;13.336;2023-01-08T05:17:00;9.90;;;9.00;;
16593;SDS011;8410;52.532;13.336;2023-01-08T05:19:28;9.37;;;8.43;;
16593;SDS011;8410;52.532;13.336;2023-01-08T05:21:55;9.20;;;8.30;;
16593;SDS011;8410;52.532;13.336;2023-01-08T05:24:23;9.20;;;8.30;;
16593;SDS011;8410;52.532;13.336;2023-01-08T05:26:52;10.43;;;9.33;;
16593;SDS011;8410;52.532;13.336;2023-01-08T05:29:19;9.70;;;8.70;;
16593;SDS011;8410;52.532;13.336;2023-01-08T05:31:47;8.90;;;8.00;;
16593;SDS011;8410;52.532;13.336;2023-01-08T05:34:14;8.87;;;7.90;;
16593;SDS011;8410;52.532;13.336;2023-01-08T05:36:42;9.20;;;8.27;;
16593;SDS011;8410;52.532;13.336;2023-01-08T05:39:09;9.03;;;8.23;;
16593;SDS011;8410;52.532;13.336;2023-01-08T05:41:37;9.20;;;8.40;;
16593;SDS011;8410;52.532;13.336;2023-01-08T05:44:06;9.43;;;8.40;;
16593;SDS011;8410;52.532;13.336;2023-01-08T05:46:33;9.27;;;8.40;;
16593;SDS011;8410;52.532;13.336;2023-01-08T05:49:00;9.53;;;8.63;;
16593;SDS011;8410;52.532;13.336;2023-01-08T05:51:28;10.07;;;9.17;;
16593;SDS011;8410;52.532;13.336;2023-01-08T05:53:55;9.27;;;8.37;;
16593;SDS011;8410;52.532;13.336;2023-01-08T05:56:23;8.23;;;7.23;;
16593;SDS011;8410;52.532;13.336;2023-01-08T05:58:52;9.30;;;8.40;;
16593;SDS011;8410;52.532;13.336;2023-01-08T06:01:21;8.50;;;7.80;;
16593;SDS011;8410;52.532;13.336;2023-01-08T06:03:49;8.17;;;7.47;;
16593;SDS011;8410;52.532;13.336;2023-01-08T06:06:16;9.93;;;8.90;;
16593;SDS011;8410;52.532;13.336;2023-01-08T06:08:44;9.33;;;8.17;;
16593;SDS011;8410;52.532;13.336;2023-01-08T06:11:11;8.00;;;7.20;;
16593;SDS011;8410;52.532;13.336;2023-01-08T06:13:40;8.40;;;7.53;;
16593;SDS011;8410;52.532;13.336;2023-01-08T06:16:08;8.83;;;8.03;;
16593;SDS011;8410;52.532;13.336;2023-01-08T06:18:37;9.10;;;8.20;;
16593;SDS011;8410;52.532;13.336;2023-01-08T06:21:05;8.57;;;7.77;;
16593;SDS011;8410;52.532;13.336;2023-01-08T06:23:32;7.87;;;7.10;;
16593;SDS011;8410;52.532;13.336;2023-01-08T06:26:00;8.13;;;7.33;;
16593;SDS011;8410;52.532;13.336;2023-01-08T06:28:29;7.93;;;7.17;;
16593;SDS011;8410;52.532;13.336;2023-01-08T06:30:57;7.17;;;6.57;;
16593;SDS011;8410;52.532;13.336;2023-01-08T06:33:25;7.80;;;7.10;;
16593;SDS011;8410;52.532;13.336;2023-01-08T06:35:54;7.87;;;7.17;;
16593;SDS011;8410;52.532;13.336;2023-01-08T06:38:26;7.57;;;6.60;;
16593;SDS011;8410;52.532;13.336;2023-01-08T06:40:53;7.77;;;6.97;;
16593;SDS011;8410;52.532;13.336;2023-01-08T06:43:21;8.10;;;7.30;;
16593;SDS011;8410;52.532;13.336;2023-01-08T06:45:51;7.90;;;7.10;;
16593;SDS011;8410;52.532;13.336;2023-01-08T06:48:19;8.00;;;6.73;;
16593;SDS011;8410;52.532;13.336;2023-01-08T06:50:47;6.87;;;6.27;;
16593;SDS011;8410;52.532;13.336;2023-01-08T06:53:16;7.00;;;6.30;;
16593;SDS011;8410;52.532;13.336;2023-01-08T06:55:43;6.97;;;6.37;;
16593;SDS011;8410;52.532;13.336;2023-01-08T06:58:11;6.63;;;5.77;;
16593;SDS011;8410;52.532;13.336;2023-01-08T07:00:39;7.17;;;6.47;;
16593;SDS011;8410;52.532;13.336;2023-01-08T07:03:06;6.80;;;6.20;;
16593;SDS011;8410;52.532;13.336;2023-01-08T07:05:34;6.80;;;6.20;;
16593;SDS011;8410;52.532;13.336;2023-01-08T07:08:02;7.47;;;6.77;;
16593;SDS011;8410;52.532;13.336;2023-01-08T07:10:30;7.77;;;7.07;;
16593;SDS011;8410;52.532;13.336;2023-01-08T07:13:00;7.43;;;6.77;;
16593;SDS011;8410;52.532;13.336;2023-01-08T07:15:27;7.37;;;6.60;;
16593;SDS011;8410;52.532;13.336;2023-01-08T07:17:55;6.67;;;6.07;;
16593;SDS011;8410;52.532;13.336;2023-01-08T07:20:22;7.30;;;6.60;;
16593;SDS011;8410;52.532;13.336;2023-01-08T07:22:50;7.03;;;6.43;;
16593;SDS011;8410;52.532;13.336;2023-01-08T07:25:17;6.87;;;5.97;;
16593;SDS011;8410;52.532;13.336;2023-01-08T07:27:47;7.20;;;6.50;;
16593;SDS011;8410;52.532;13.336;2023-01-08T07:30:15;7.13;;;6.47;;
16593;SDS011;8410;52.532;13.336;2023-01-08T07:32:56;7.07;;;6.47;;
16593;SDS011;8410;52.532;13.336;2023-01-08T07:35:25;7.50;;;6.80;;
16593;SDS011;8410;52.532;13.336;2023-01-08T07:37:53;7.33;;;6.73;;
16593;SDS011;8410;52.532;13.336;2023-01-08T07:40:21;7.07;;;6.20;;
16593;SDS011;8410;52.532;13.336;2023-01-08T07:42:57;8.20;;;7.13;;
16593;SDS011;8410;52.532;13.336;2023-01-08T07:45:25;7.37;;;6.67;;
16593;SDS011;8410;52.532;13.336;2023-01-08T07:47:53;7.10;;;6.50;;
16593;SDS011;8410;52.532;13.336;2023-01-08T07:50:22;6.60;;;6.10;;
16593;SDS011;8410;52.532;13.336;2023-01-08T07:52:50;7.20;;;6.50;;
16593;SDS011;8410;52.532;13.336;2023-01-08T07:55:17;7.13;;;6.43;;
16593;SDS011;8410;52.532;13.336;2023-01-08T07:57:45;6.73;;;6.13;;
16593;SDS011;8410;52.532;13.336;2023-01-08T08:00:14;6.57;;;5.97;;
16593;SDS011;8410;52.532;13.336;2023-01-08T08:02:41;7.30;;;6.70;;
16593;SDS011;8410;52.532;13.336;2023-01-08T08:05:09;7.60;;;6.90;;
16593;SDS011;8410;52.532;13.336;2023-01-08T08:07:37;6.13;;;5.60;;
16593;SDS011;8410;52.532;13.336;2023-01-08T08:10:04;7.53;;;6.90;;
16593;SDS011;8410;52.532;13.336;2023-01-08T08:12:32;6.93;;;6.33;;
16593;SDS011;8410;52.532;13.336;2023-01-08T08:15:00;7.03;;;6.33;;
16593;SDS011;8410;52.532;13.336;2023-01-08T08:17:29;7.90;;;7.20;;
16593;SDS011;8410;52.532;13.336;2023-01-08T08:19:56;7.50;;;6.80;;
16593;SDS011;8410;52.532;13.336;2023-01-08T08:22:23;7.47;;;6.77;;
16593;SDS011;8410;52.532;13.336;2023-01-08T08:24:51;7.80;;;7.10;;
16593;SDS011;8410;52.532;13.336;2023-01-08T08:27:19;8.33;;;7.10;;
16593;SDS011;8410;52.532;13.336;2023-01-08T08:29:46;8.10;;;7.07;;
16593;SDS011;8410;52.532;13.336;2023-01-08T08:32:13;7.23;;;6.53;;
16593;SDS011;8410;52.532;13.336;2023-01-08T08:34:42;7.43;;;6.73;;
16593;SDS011;8410;52.532;13.336;2023-01-08T08:37:10;6.90;;;6.30;;
16593;SDS011;8410;52.532;13.336;2023-01-08T08:39:37;7.30;;;6.60;;
16593;SDS011;8410;52.532;13.336;2023-01-08T08:42:04;7.40;;;6.80;;
16593;SDS011;8410;52.532;13.336;2023-01-08T08:44:32;7.37;;;6.67;;
16593;SDS011;8410;52.532;13.336;2023-01-08T08:46:59;6.63;;;6.03;;
16593;SDS011;8410;52.532;13.336;2023-01-08T08:49:27;7.17;;;6.20;;
16593;SDS011;8410;52.532;13.336;2023-01-08T08:51:56;7.67;;;6.97;;
16593;SDS011;8410;52.532;13.336;2023-01-08T08:54:23;7.73;;;7.03;;
16593;SDS011;8410;52.532;13.336;2023-01-08T08:56:50;7.27;;;6.67;;
16593;SDS011;8410;52.532;13.336;2023-01-08T08:59:18;6.27;;;5.77;;
16593;SDS011;8410;52.532;13.336;2023-01-08T09:01:45;7.27;;;6.67;;
16593;SDS011;8410;52.532;13.336;2023-01-08T09:04:13;6.07;;;5.57;;
16593;SDS011;8410;52.532;13.336;2023-01-08T09:06:40;6.17;;;5.67;;
16593;SDS011;8410;52.532;13.336;2023-01-08T09:09:09;6.37;;;5.77;;
16593;SDS011;8410;52.532;13.336;2023-01-08T09:11:37;7.03;;;5.90;;
16593;SDS011;8410;52.532;13.336;2023-01-08T09:14:04;21.33;;;19.20;;
16593;SDS011;8410;52.532;13.336;2023-01-08T09:16:31;8.83;;;8.00;;
16593;SDS011;8410;52.532;13.336;2023-01-08T09:19:01;10.73;;;9.37;;
16593;SDS011;8410;52.532;13.336;2023-01-08T09:21:29;13.87;;;12.57;;
16593;SDS011;8410;52.532;13.336;2023-01-08T09:23:57;7.63;;;6.93;;
16593;SDS011;8410;52.532;13.336;2023-01-08T09:26:25;8.33;;;7.53;;
16593;SDS011;8410;52.532;13.336;2023-01-08T09:28:55;7.00;;;6.30;;
16593;SDS011;8410;52.532;13.336;2023-01-08T09:31:24;7.10;;;6.43;;
16593;SDS011;8410;52.532;13.336;2023-01-08T09:33:52;7.90;;;7.20;;
16593;SDS011;8410;52.532;13.336;2023-01-08T09:36:19;8.17;;;7.37;;
16593;SDS011;8410;52.532;13.336;2023-01-08T09:38:47;7.23;;;6.63;;
16593;SDS011;8410;52.532;13.336;2023-01-08T09:41:15;19.20;;;15.73;;
16593;SDS011;8410;52.532;13.336;2023-01-08T09:43:47;11.83;;;10.33;;
16593;SDS011;8410;52.532;13.336;2023-01-08T09:46:19;35.33;;;30.90;;
16593;SDS011;8410;52.532;13.336;2023-01-08T09:48:50;22.13;;;19.27;;
16593;SDS011;8410;52.532;13.336;2023-01-08T09:51:18;19.30;;;16.87;;
16593;SDS011;8410;52.532;13.336;2023-01-08T09:53:48;31.23;;;27.67;;
16593;SDS011;8410;52.532;13.336;2023-01-08T09:56:21;17.67;;;15.90;;
16593;SDS011;8410;52.532;13.336;2023-01-08T09:58:50;20.47;;;18.30;;
16593;SDS011;8410;52.532;13.336;2023-01-08T10:01:20;13.33;;;11.67;;
16593;SDS011;8410;52.532;13.336;2023-01-08T10:03:54;18.27;;;16.47;;
16593;SDS011;8410;52.532;13.336;2023-01-08T10:06:26;12.73;;;11.07;;
16593;SDS011;8410;52.532;13.336;2023-01-08T10:08:53;6.13;;;5.50;;
16593;SDS011;8410;52.532;13.336;2023-01-08T10:11:21;15.17;;;13.77;;
16593;SDS011;8410;52.532;13.336;2023-01-08T10:13:52;9.93;;;8.93;;
16593;SDS011;8410;52.532;13.336;2023-01-08T10:16:24;26.53;;;24.00;;
16593;SDS011;8410;52.532;13.336;2023-01-08T10:18:55;7.60;;;7.00;;
16593;SDS011;8410;52.532;13.336;2023-01-08T10:21:27;6.20;;;5.60;;
16593;SDS011;8410;52.532;13.336;2023-01-08T10:23:56;6.23;;;5.43;;
16593;SDS011;8410;52.532;13.336;2023-01-08T10:26:24;6.90;;;6.23;;
16593;SDS011;8410;52.532;13.336;2023-01-08T10:29:12;9.90;;;7.70;;
16593;SDS011;8410;52.532;13.336;2023-01-08T10:31:47;8.03;;;7.33;;
16593;SDS011;8410;52.532;13.336;2023-01-08T10:34:23;7.77;;;6.43;;
16593;SDS011;8410;52.532;13.336;2023-01-08T10:36:52;7.03;;;6.32;;
16593;SDS011;8410;52.532;13.336;2023-01-08T10:39:22;7.00;;;6.40;;
16593;SDS011;8410;52.532;13.336;2023-01-08T10:41:52;7.40;;;6.67;;
16593;SDS011;8410;52.532;13.336;2023-01-08T10:44:24;9.90;;;8.90;;
16593;SDS011;8410;52.532;13.336;2023-01-08T10:46:52;8.63;;;6.23;;
16593;SDS011;8410;52.532;13.336;2023-01-08T10:49:28;8.23;;;7.43;;
16593;SDS011;8410;52.532;13.336;2023-01-08T10:51:58;8.57;;;7.77;;
16593;SDS011;8410;52.532;13.336;2023-01-08T10:54:33;7.80;;;7.10;;
16593;SDS011;8410;52.532;13.336;2023-01-08T10:57:02;7.80;;;7.10;;
16593;SDS011;8410;52.532;13.336;2023-01-08T10:59:46;8.70;;;7.80;;
16593;SDS011;8410;52.532;13.336;2023-01-08T11:02:16;8.03;;;7.33;;
16593;SDS011;8410;52.532;13.336;2023-01-08T11:04:50;8.30;;;7.50;;
16593;SDS011;8410;52.532;13.336;2023-01-08T11:07:19;7.70;;;6.90;;
16593;SDS011;8410;52.532;13.336;2023-01-08T11:09:49;7.27;;;6.67;;
16593;SDS011;8410;52.532;13.336;2023-01-08T11:12:25;7.83;;;7.10;;
16593;SDS011;8410;52.532;13.336;2023-01-08T11:14:59;7.57;;;6.87;;
16593;SDS011;8410;52.532;13.336;2023-01-08T11:17:28;8.03;;;7.33;;
16593;SDS011;8410;52.532;13.336;2023-01-08T11:20:05;8.07;;;7.27;;
16593;SDS011;8410;52.532;13.336;2023-01-08T11:22:34;8.20;;;7.50;;
16593;SDS011;8410;52.532;13.336;2023-01-08T11:25:01;8.57;;;7.77;;
16593;SDS011;8410;52.532;13.336;2023-01-08T11:27:30;7.67;;;6.90;;
16593;SDS011;8410;52.532;13.336;2023-01-08T11:30:01;6.87;;;6.27;;
16593;SDS011;8410;52.532;13.336;2023-01-08T11:32:36;8.13;;;7.43;;
16593;SDS011;8410;52.532;13.336;2023-01-08T11:35:10;7.90;;;7.20;;
16593;SDS011;8410;52.532;13.336;2023-01-08T11:37:42;8.70;;;7.83;;
16593;SDS011;8410;52.532;13.336;2023-01-08T11:40:15;8.70;;;7.30;;
16593;SDS011;8410;52.532;13.336;2023-01-08T11:42:57;8.50;;;7.60;;
16593;SDS011;8410;52.532;13.336;2023-01-08T11:45:41;8.67;;;7.87;;
16593;SDS011;8410;52.532;13.336;2023-01-08T11:48:26;8.40;;;7.60;;
16593;SDS011;8410;52.532;13.336;2023-01-08T11:51:05;9.77;;;8.37;;
16593;SDS011;8410;52.532;13.336;2023-01-08T11:53:45;7.83;;;7.13;;
16593;SDS011;8410;52.532;13.336;2023-01-08T11:56:20;7.30;;;6.60;;
16593;SDS011;8410;52.532;13.336;2023-01-08T11:59:05;8.47;;;6.50;;
16593;SDS011;8410;52.532;13.336;2023-01-08T12:01:46;8.17;;;7.47;;
16593;SDS011;8410;52.532;13.336;2023-01-08T12:04:30;7.23;;;6.63;;
16593;SDS011;8410;52.532;13.336;2023-01-08T12:07:12;7.10;;;6.57;;
16593;SDS011;8410;52.532;13.336;2023-01-08T12:09:45;8.53;;;7.77;;
16593;SDS011;8410;52.532;13.336;2023-01-08T12:12:23;7.60;;;6.83;;
16593;SDS011;8410;52.532;13.336;2023-01-08T12:15:06;7.43;;;6.70;;
16593;SDS011;8410;52.532;13.336;2023-01-08T12:17:48;5.80;;;5.30;;
16593;SDS011;8410;52.532;13.336;2023-01-08T12:20:29;6.97;;;6.27;;
16593;SDS011;8410;52.532;13.336;2023-01-08T12:23:06;7.23;;;6.53;;
16593;SDS011;8410;52.532;13.336;2023-01-08T12:25:51;9.30;;;6.37;;
16593;SDS011;8410;52.532;13.336;2023-01-08T12:28:31;8.07;;;7.07;;
16593;SDS011;8410;52.532;13.336;2023-01-08T12:31:14;7.17;;;6.50;;
16593;SDS011;8410;52.532;13.336;2023-01-08T12:33:57;7.50;;;6.80;;
16593;SDS011;8410;52.532;13.336;2023-01-08T12:36:34;8.37;;;7.67;;
16593;SDS011;8410;52.532;13.336;2023-01-08T12:39:07;7.43;;;6.73;;
16593;SDS011;8410;52.532;13.336;2023-01-08T12:41:38;7.53;;;6.93;;
16593;SDS011;8410;52.532;13.336;2023-01-08T12:44:10;7.13;;;6.53;;
16593;SDS011;8410;52.532;13.336;2023-01-08T12:46:43;8.80;;;7.53;;
16593;SDS011;8410;52.532;13.336;2023-01-08T12:49:14;8.07;;;7.20;;
16593;SDS011;8410;52.532;13.336;2023-01-08T12:51:58;7.00;;;6.30;;
16593;SDS011;8410;52.532;13.336;2023-01-08T12:54:33;8.03;;;7.20;;
16593;SDS011;8410;52.532;13.336;2023-01-08T12:57:10;8.47;;;7.00;;
16593;SDS011;8410;52.532;13.336;2023-01-08T12:59:44;11.40;;;8.87;;
16593;SDS011;8410;52.532;13.336;2023-01-08T13:02:20;8.77;;;7.67;;
16593;SDS011;8410;52.532;13.336;2023-01-08T13:05:10;8.23;;;7.43;;
16593;SDS011;8410;52.532;13.336;2023-01-08T13:07:41;7.43;;;6.40;;
16593;SDS011;8410;52.532;13.336;2023-01-08T13:10:18;7.57;;;6.87;;
16593;SDS011;8410;52.532;13.336;2023-01-08T13:12:50;7.83;;;7.17;;
16593;SDS011;8410;52.532;13.336;2023-01-08T13:15:20;9.53;;;7.90;;
16593;SDS011;8410;52.532;13.336;2023-01-08T13:17:51;9.57;;;8.67;;
16593;SDS011;8410;52.532;13.336;2023-01-08T13:20:23;8.90;;;8.10;;
16593;SDS011;8410;52.532;13.336;2023-01-08T13:22:53;8.00;;;7.20;;
16593;SDS011;8410;52.532;13.336;2023-01-08T13:25:27;8.13;;;7.43;;
16593;SDS011;8410;52.532;13.336;2023-01-08T13:27:56;9.30;;;8.37;;
16593;SDS011;8410;52.532;13.336;2023-01-08T13:30:35;8.60;;;7.73;;
16593;SDS011;8410;52.532;13.336;2023-01-08T13:33:24;9.40;;;8.40;;
16593;SDS011;8410;52.532;13.336;2023-01-08T13:36:18;8.47;;;7.70;;
16593;SDS011;8410;52.532;13.336;2023-01-08T13:38:58;9.00;;;8.20;;
16593;SDS011;8410;52.532;13.336;2023-01-08T13:41:31;10.97;;;8.37;;
16593;SDS011;8410;52.532;13.336;2023-01-08T13:44:00;8.47;;;7.57;;
16593;SDS011;8410;52.532;13.336;2023-01-08T13:46:31;8.80;;;7.43;;
16593;SDS011;8410;52.532;13.336;2023-01-08T13:49:02;9.97;;;8.73;;
16593;SDS011;8410;52.532;13.336;2023-01-08T13:51:38;9.83;;;8.83;;
16593;SDS011;8410;52.532;13.336;2023-01-08T13:54:21;9.43;;;8.63;;
16593;SDS011;8410;52.532;13.336;2023-01-08T13:57:00;9.97;;;9.00;;
16593;SDS011;8410;52.532;13.336;2023-01-08T13:59:35;9.30;;;8.60;;
16593;SDS011;8410;52.532;13.336;2023-01-08T14:02:19;10.13;;;8.47;;
16593;SDS011;8410;52.532;13.336;2023-01-08T14:04:49;10.43;;;9.43;;
16593;SDS011;8410;52.532;13.336;2023-01-08T14:07:19;14.27;;;11.87;;
16593;SDS011;8410;52.532;13.336;2023-01-08T14:09:46;10.63;;;9.63;;
16593;SDS011;8410;52.532;13.336;2023-01-08T14:12:15;10.47;;;9.47;;
16593;SDS011;8410;52.532;13.336;2023-01-08T14:14:46;11.53;;;10.07;;
16593;SDS011;8410;52.532;13.336;2023-01-08T14:17:18;13.13;;;11.83;;
16593;SDS011;8410;52.532;13.336;2023-01-08T14:19:48;16.70;;;15.13;;
16593;SDS011;8410;52.532;13.336;2023-01-08T14:22:17;24.20;;;20.93;;
16593;SDS011;8410;52.532;13.336;2023-01-08T14:24:50;11.10;;;9.57;;
16593;SDS011;8410;52.532;13.336;2023-01-08T14:27:22;10.80;;;9.80;;
16593;SDS011;8410;52.532;13.336;2023-01-08T14:29:52;10.13;;;9.13;;
16593;SDS011;8410;52.532;13.336;2023-01-08T14:32:20;10.90;;;9.83;;
16593;SDS011;8410;52.532;13.336;2023-01-08T14:34:50;9.73;;;8.93;;
16593;SDS011;8410;52.532;13.336;2023-01-08T14:37:20;10.33;;;9.43;;
16593;SDS011;8410;52.532;13.336;2023-01-08T14:39:48;10.43;;;9.43;;
16593;SDS011;8410;52.532;13.336;2023-01-08T14:42:20;10.03;;;8.93;;
16593;SDS011;8410;52.532;13.336;2023-01-08T14:45:13;10.13;;;9.23;;
16593;SDS011;8410;52.532;13.336;2023-01-08T14:47:44;10.60;;;9.33;;
16593;SDS011;8410;52.532;13.336;2023-01-08T14:50:16;9.83;;;8.93;;
16593;SDS011;8410;52.532;13.336;2023-01-08T14:52:47;10.23;;;9.23;;
16593;SDS011;8410;52.532;13.336;2023-01-08T14:55:17;13.57;;;12.20;;
16593;SDS011;8410;52.532;13.336;2023-01-08T14:57:46;11.37;;;10.20;;
16593;SDS011;8410;52.532;13.336;2023-01-08T15:00:17;10.63;;;9.63;;